Time;durP1;ratioP1;P1;durP2;ratioP2;P2;SDS_P1;SDS_P2;PMS_P1;PMS_P2;Temp;Humidity;BMP_temperature;BMP_pressure;BME280_temperature;BME280_humidity;BME280_pressure;Samples;Min_cycle;Max_cycle;Signal;HPM_P1;HPM_P2
2022/08/14 00:01:21;;;;;;;34.63;27.42;;;;;;;22.62;100.00;27308.72;5113595;28;20187;-64
2022/08/14 00:03:48;;;;;;;32.40;25.50;;;;;;;22.39;100.00;26640.44;5113018;28;20226;-63
2022/08/14 00:06:15;;;;;;;37.20;26.05;;;;;;;22.66;100.00;25340.28;5113216;28;20603;-63
2022/08/14 00:08:42;;;;;;;42.75;29.42;;;;;;;22.71;100.00;26984.47;5112957;28;20188;-64
2022/08/14 00:11:09;;;;;;;45.42;30.05;;;;;;;22.68;100.00;28954.50;5112819;28;20203;-63
2022/08/14 00:13:36;;;;;;;38.13;29.42;;;;;;;22.69;100.00;32571.75;5112511;28;20239;-62
2022/08/14 00:16:05;;;;;;;37.35;29.30;;;;;;;22.54;100.00;33879.22;5113126;28;20665;-64
2022/08/14 00:18:32;;;;;;;39.30;28.23;;;;;;;22.57;100.00;30920.50;5113079;28;20630;-63
2022/08/14 00:20:59;;;;;;;38.42;28.85;;;;;;;22.53;100.00;29275.19;5113062;28;20286;-63
2022/08/14 00:23:26;;;;;;;36.17;28.67;;;;;;;22.47;100.00;29928.94;5113086;28;20676;-63
2022/08/14 00:25:56;;;;;;;36.20;27.15;;;;;;;22.48;100.00;28287.00;5112852;28;20183;-63
2022/08/14 00:28:25;;;;;;;36.28;26.55;;;;;;;22.36;100.00;23686.38;5112519;28;20237;-63
2022/08/14 00:30:55;;;;;;;31.83;25.90;;;;;;;22.37;100.00;21719.66;5112499;28;20179;-64
2022/08/14 00:33:24;;;;;;;33.88;26.70;;;;;;;22.20;100.00;18437.81;5112671;28;20659;-65
2022/08/14 00:35:52;;;;;;;38.13;26.05;;;;;;;22.01;100.00;12872.53;5112743;28;20184;-63
2022/08/14 00:38:19;;;;;;;37.38;25.60;;;;;;;22.12;100.00;9609.47;5112384;28;20194;-64
2022/08/14 00:40:47;;;;;;;37.10;25.77;;;;;;;22.06;100.00;9281.81;5112652;28;20187;-64
2022/08/14 00:43:14;;;;;;;32.45;27.13;;;;;;;22.22;100.00;8305.78;5112297;28;20187;-64
2022/08/14 00:45:41;;;;;;;45.40;27.42;;;;;;;22.19;100.00;7326.34;5112299;28;20183;-63
2022/08/14 00:48:09;;;;;;;38.75;27.40;;;;;;;21.99;100.00;5040.75;5112384;28;20210;-64
2022/08/14 00:50:37;;;;;;;40.15;27.13;;;;;;;21.98;100.00;3737.16;5112282;28;20190;-64
2022/08/14 00:53:06;;;;;;;32.53;26.92;;;;;;;22.01;100.00;4063.38;5112381;28;20601;-64
2022/08/14 00:55:36;;;;;;;36.78;25.88;;;;;;;22.06;100.00;5041.72;5112476;28;20198;-63
2022/08/14 01:00:49;;;;;;;31.60;24.20;;;;;;;22.09;100.00;7324.69;5112312;28;20175;-63
2022/08/14 01:03:17;;;;;;;31.15;24.80;;;;;;;22.06;100.00;6671.88;5112112;28;20184;-63
2022/08/14 01:05:48;;;;;;;33.60;28.13;;;;;;;22.10;100.00;7324.84;5112162;28;20206;-63
2022/08/14 01:08:17;;;;;;;37.88;30.45;;;;;;;22.07;100.00;11240.84;5112011;28;20199;-63
2022/08/14 01:10:51;;;;;;;42.33;31.20;;;;;;;22.07;100.00;14508.03;5112177;28;20179;-64
2022/08/14 01:13:20;;;;;;;45.17;31.55;;;;;;;22.12;100.00;15817.41;5111950;28;20230;-64
2022/08/14 01:15:49;;;;;;;40.13;29.80;;;;;;;22.06;100.00;16796.72;5112425;28;20187;-64
2022/08/14 01:21:05;;;;;;;36.22;27.60;;;;;;;22.09;100.00;15816.47;5112228;28;20178;-63
2022/08/14 01:23:34;;;;;;;33.05;27.85;;;;;;;21.98;100.00;15159.31;5112084;28;20589;-63
2022/08/14 01:26:03;;;;;;;38.45;29.38;;;;;;;21.87;100.00;17444.94;5114331;28;20678;-64
2022/08/14 01:28:33;;;;;;;44.95;34.08;;;;;;;22.01;100.00;16795.09;5116134;28;20184;-62
2022/08/14 01:31:00;;;;;;;59.95;38.85;;;;;;;22.03;100.00;19740.91;5116372;28;20635;-63
2022/08/14 01:33:29;;;;;;;46.28;37.20;;;;;;;22.01;100.00;20722.66;5116105;28;20207;-65
2022/08/14 01:35:56;;;;;;;50.67;35.97;;;;;;;21.93;100.00;20719.50;5116086;28;20278;-63
2022/08/14 01:38:25;;;;;;;51.95;32.50;;;;;;;21.96;100.00;20065.84;5116196;28;20290;-64
2022/08/14 01:40:54;;;;;;;39.53;29.67;;;;;;;21.76;100.00;17768.06;5115871;28;20240;-63
2022/08/14 01:43:21;;;;;;;38.42;29.52;;;;;;;21.82;100.00;16135.13;5115939;28;20207;-64
2022/08/14 01:45:50;;;;;;;41.50;31.48;;;;;;;21.62;100.00;14495.09;5115542;28;20199;-63
2022/08/14 01:48:18;;;;;;;44.67;31.67;;;;;;;21.71;100.00;14171.16;5115684;28;20202;-64
2022/08/14 01:50:45;;;;;;;37.63;29.00;;;;;;;21.54;100.00;10901.97;5115916;28;20531;-63
2022/08/14 01:53:12;;;;;;;32.58;26.88;;;;;;;21.54;100.00;8619.06;5115912;28;20207;-64
2022/08/14 01:55:39;;;;;;;40.95;28.00;;;;;;;21.55;100.00;7315.25;5115579;28;20243;-63
2022/08/14 01:58:11;;;;;;;35.92;27.30;;;;;;;21.55;100.00;6337.66;5115936;28;20656;-64
2022/08/14 02:00:38;;;;;;;31.60;27.40;;;;;;;21.57;100.00;6012.25;5115828;28;20207;-64
2022/08/14 02:03:07;;;;;;;34.97;27.65;;;;;;;21.67;100.00;7317.34;5115644;28;20531;-65
2022/08/14 02:05:34;;;;;;;28.77;24.42;;;;;;;21.54;100.00;6337.50;5115396;28;20237;-63
2022/08/14 02:08:01;;;;;;;33.70;24.83;;;;;;;21.37;100.00;5032.34;5115331;28;20209;-64
2022/08/14 02:10:28;;;;;;;32.58;29.13;;;;;;;21.50;100.00;5034.00;5115225;28;20261;-63
2022/08/14 02:12:56;;;;;;;33.35;26.50;;;;;;;21.54;100.00;5360.25;5115358;28;20230;-62
2022/08/14 02:15:25;;;;;;;34.88;27.40;;;;;;;21.48;100.00;4382.50;5115488;28;20617;-64
2022/08/14 02:17:52;;;;;;;37.30;27.13;;;;;;;21.31;100.00;5031.44;5115427;28;20634;-63
2022/08/14 02:20:19;;;;;;;35.85;25.88;;;;;;;21.52;100.00;4708.69;5114967;28;20194;-63
2022/08/14 02:22:47;;;;;;;36.03;26.98;;;;;;;21.59;100.00;6012.50;5115207;28;20228;-63
2022/08/14 02:25:14;;;;;;;30.00;26.80;;;;;;;21.59;100.00;8946.00;5115008;28;20179;-63
2022/08/14 02:27:41;;;;;;;28.20;24.75;;;;;;;21.61;100.00;9272.53;5114909;28;20188;-63
2022/08/14 02:30:10;;;;;;;27.27;24.48;;;;;;;21.62;100.00;12862.34;5115204;28;20180;-63
2022/08/14 02:32:38;;;;;;;31.92;25.27;;;;;;;21.59;100.00;12534.97;5114934;28;20214;-63
2022/08/14 02:35:12;;;;;;;29.77;24.77;;;;;;;21.60;100.00;13188.19;5115081;28;20592;-63
2022/08/14 02:37:39;;;;;;;31.17;24.05;;;;;;;21.54;100.00;12860.13;5114443;28;20633;-64
2022/08/14 02:40:11;;;;;;;24.83;21.73;;;;;;;21.56;100.00;12860.78;5115314;28;20590;-64
2022/08/14 02:42:39;;;;;;;30.98;22.77;;;;;;;21.43;100.00;19064.69;5114645;28;20183;-63
2022/08/14 02:45:07;;;;;;;24.42;22.02;;;;;;;21.33;100.00;19715.03;5114917;28;20183;-63
2022/08/14 02:47:35;;;;;;;25.35;22.08;;;;;;;21.13;100.00;17093.25;5114687;28;20184;-63
2022/08/14 02:50:04;;;;;;;23.08;20.95;;;;;;;21.26;100.00;16771.03;5114586;28;20184;-63
2022/08/14 02:52:31;;;;;;;24.42;21.83;;;;;;;21.34;100.00;16773.63;5114797;28;20207;-63
2022/08/14 02:54:58;;;;;;;23.25;21.15;;;;;;;21.34;100.00;16446.75;5114399;28;20214;-63
2022/08/14 02:57:27;;;;;;;22.63;20.45;;;;;;;21.27;100.00;15138.25;5114906;28;20199;-63
2022/08/14 02:59:54;;;;;;;22.20;20.02;;;;;;;21.29;100.00;15138.84;5114900;28;20183;-64
2022/08/14 03:02:21;;;;;;;25.48;19.50;;;;;;;21.19;100.00;14482.91;5114802;28;20183;-63
2022/08/14 03:04:48;;;;;;;22.50;20.17;;;;;;;21.21;100.00;14483.34;5114425;28;20274;-62
2022/08/14 03:07:17;;;;;;;22.77;20.50;;;;;;;20.90;100.00;13169.63;5114710;28;20564;-63
2022/08/14 03:09:44;;;;;;;24.95;19.70;;;;;;;21.12;100.00;10566.44;5114167;28;20218;-64
2022/08/14 03:12:11;;;;;;;23.15;20.73;;;;;;;21.20;100.00;10568.25;5114293;28;20681;-63
2022/08/14 03:14:42;;;;;;;22.77;19.42;;;;;;;21.22;100.00;9590.66;5114005;28;20231;-64
2022/08/14 03:17:10;;;;;;;26.60;19.75;;;;;;;21.21;100.00;11220.66;5114036;28;20188;-63
2022/08/14 03:19:37;;;;;;;23.73;19.48;;;;;;;21.04;100.00;7957.81;5114226;28;20194;-63
2022/08/14 03:22:04;;;;;;;21.60;19.48;;;;;;;21.10;100.00;7959.00;5114114;28;20180;-63
2022/08/14 03:24:35;;;;;;;21.17;18.83;;;;;;;21.20;100.00;7960.84;5113772;28;20187;-64
2022/08/14 03:27:02;;;;;;;20.57;18.67;;;;;;;21.12;100.00;8936.69;5114018;28;20207;-64
2022/08/14 03:29:29;;;;;;;21.07;18.87;;;;;;;21.08;100.00;7307.25;5113972;28;20179;-63
2022/08/14 03:31:56;;;;;;;23.58;19.48;;;;;;;20.88;100.00;6327.22;5113563;28;20187;-63
2022/08/14 03:34:23;;;;;;;20.92;18.88;;;;;;;21.05;100.00;6004.28;5113942;28;20187;-65
2022/08/14 03:36:55;;;;;;;25.92;19.65;;;;;;;20.85;100.00;3399.06;5113615;28;20184;-63
2022/08/14 03:39:22;;;;;;;20.75;18.67;;;;;;;20.99;100.00;5027.13;5113672;28;20183;-64
2022/08/14 03:41:52;;;;;;;20.20;18.02;;;;;;;21.16;100.00;5029.38;5113791;28;20550;-64
2022/08/14 03:44:18;;;;;;;20.45;18.48;;;;;;;21.32;100.00;6659.81;5113599;28;20188;-65
2022/08/14 03:46:45;;;;;;;21.63;18.52;;;;;;;21.48;100.00;10248.19;5113308;28;20188;-64
2022/08/14 03:49:12;;;;;;;20.30;18.17;;;;;;;21.63;100.00;11230.38;5112676;28;20573;-64
2022/08/14 03:51:39;;;;;;;19.70;17.85;;;;;;;21.81;100.00;16461.91;5113826;28;20527;-63
2022/08/14 03:54:08;;;;;;;20.60;18.45;;;;;;;21.99;100.00;21376.66;5113257;28;20203;-63
2022/08/14 03:56:36;;;;;;;20.70;18.13;;;;;;;21.99;100.00;26293.19;5113689;28;20180;-63
2022/08/14 03:59:08;;;;;;;22.98;16.80;;;;;;;22.08;100.00;26297.75;5113968;28;20199;-64
2022/08/14 04:01:35;;;;;;;22.15;18.30;;;;;;;22.33;100.00;30250.19;5113013;28;20262;-64
2022/08/14 04:04:04;;;;;;;19.75;17.80;;;;;;;22.48;100.00;37496.41;5113041;28;20191;-64
2022/08/14 04:06:32;;;;;;;18.35;16.80;;;;;;;22.69;100.00;47409.38;5095887;28;20195;-63
2022/08/14 04:08:59;;;;;;;21.27;18.58;;;;;;;22.97;100.00;54713.59;5113415;28;20574;-62
2022/08/14 04:11:28;;;;;;;19.35;17.52;;;;;;;23.22;100.00;65360.25;5113257;28;20610;-63
2022/08/14 04:13:55;;;;;;;20.40;18.48;;;;;;;23.30;100.00;78695.13;5112588;28;20234;-63
2022/08/14 04:16:24;;;;;;;20.17;18.33;;;;;;;23.53;100.00;89429.69;5113236;28;20575;-64
2022/08/14 04:18:53;;;;;;;20.25;18.25;;;;;;;23.54;100.00;102857.09;5095023;28;20581;-63
2022/08/14 04:21:23;;;;;;;20.27;18.48;;;;;;;23.67;100.00;98172.84;5113336;28;20187;-63
2022/08/14 04:23:51;;;;;;;20.05;17.98;;;;;;;23.87;100.00;109312.38;5113191;28;20708;-63
2022/08/14 04:26:20;;;;;;;22.85;20.17;;;;;;;24.10;100.00;140857.00;5113101;28;20183;-64
2022/08/14 04:28:49;;;;;;;24.85;21.40;;;;;;;24.31;100.00;151813.84;5112764;28;20179;-64
2022/08/14 04:31:17;;;;;;;26.40;22.50;;;;;;;24.36;100.00;152165.34;5112941;28;20253;-64
2022/08/14 04:33:47;;;;;;;26.98;24.15;;;;;;;24.49;100.00;152198.56;5112859;28;20209;-63
2022/08/14 04:36:15;;;;;;;24.92;22.30;;;;;;;24.50;100.00;152201.13;5112474;28;20236;-63
2022/08/14 04:44:17;;;;;;;24.67;22.23;;;;;;;25.84;100.00;152539.75;5111297;28;20234;-64
2022/08/14 04:48:11;;;;;;;24.58;21.98;;;;;;;25.93;100.00;152562.75;5112323;28;20188;-64
2022/08/14 04:49:32;;;;;;;25.23;21.20;;;;;;;26.23;100.00;152638.22;5112157;28;20195;-65
2022/08/14 04:52:03;;;;;;;23.67;21.15;;;;;;;26.53;100.00;152712.38;5112213;28;20179;-63
2022/08/14 04:54:30;;;;;;;23.90;21.33;;;;;;;26.72;100.00;152762.28;5112123;28;20252;-65
2022/08/14 04:56:57;;;;;;;23.83;20.75;;;;;;;26.84;100.00;152791.69;5112241;28;20195;-63
2022/08/14 04:59:24;;;;;;;24.83;20.75;;;;;;;26.95;100.00;152818.56;5111948;28;20179;-64
2022/08/14 05:01:52;;;;;;;24.77;21.75;;;;;;;26.99;100.00;152828.84;5112065;28;20197;-64
2022/08/14 05:04:20;;;;;;;21.98;19.80;;;;;;;26.93;100.00;152813.47;5112346;28;20183;-64
2022/08/14 05:06:49;;;;;;;22.67;20.40;;;;;;;26.68;100.00;152752.06;5112495;28;20184;-64
2022/08/14 05:09:16;;;;;;;23.25;20.02;;;;;;;26.73;100.00;152764.81;5112274;28;20698;-63
2022/08/14 05:11:43;;;;;;;27.15;21.67;;;;;;;26.82;100.00;152787.84;5112049;28;20183;-64
2022/08/14 05:14:10;;;;;;;27.13;21.48;;;;;;;26.95;100.00;152819.84;5111734;28;20274;-65
2022/08/14 05:16:37;;;;;;;30.02;21.48;;;;;;;27.18;100.00;152877.44;5112272;28;20194;-63
2022/08/14 05:19:04;;;;;;;22.02;18.95;;;;;;;27.70;100.00;153010.56;5112148;28;20645;-65
2022/08/14 05:21:33;;;;;;;21.77;19.75;;;;;;;28.17;100.00;153128.34;5112272;28;20634;-65
2022/08/14 05:24:03;;;;;;;22.58;20.25;;;;;;;28.55;100.00;153224.38;5111854;28;20291;-64
2022/08/14 05:26:30;;;;;;;25.77;18.17;;;;;;;28.82;100.00;153292.25;5112230;28;20283;-66
2022/08/14 05:28:57;;;;;;;25.20;17.33;;;;;;;29.25;100.00;153402.41;5112047;28;20630;-65
2022/08/14 05:31:24;;;;;;;17.88;16.35;;;;;;;29.35;100.00;153428.09;5111907;28;20656;-64
2022/08/14 05:33:50;;;;;;;19.00;15.68;;;;;;;29.40;100.00;153440.91;5111895;28;20203;-64
2022/08/14 05:36:17;;;;;;;18.38;16.17;;;;;;;29.38;100.00;153434.47;5111903;28;20281;-65
2022/08/14 05:38:47;;;;;;;17.10;15.23;;;;;;;29.45;100.00;153453.69;5111746;28;20191;-65
2022/08/14 05:41:17;;;;;;;15.88;14.70;;;;;;;30.30;100.00;153667.69;5112106;28;20613;-64
2022/08/14 05:43:47;;;;;;;14.77;13.77;;;;;;;31.18;100.00;153892.19;5112025;28;20652;-65
2022/08/14 05:46:17;;;;;;;15.55;13.73;;;;;;;31.99;100.00;154097.47;5111712;28;20183;-65
2022/08/14 05:48:47;;;;;;;15.27;14.07;;;;;;;32.91;100.00;154331.09;5111706;28;20237;-65
2022/08/14 05:51:14;;;;;;;16.00;14.77;;;;;;;33.38;100.00;154449.25;5111544;28;20175;-64
2022/08/14 05:53:41;;;;;;;16.15;14.68;;;;;;;33.59;99.64;154503.19;5111998;28;20214;-64
2022/08/14 05:56:08;;;;;;;15.32;13.88;;;;;;;33.71;98.26;154534.06;5111510;28;20184;-65
2022/08/14 05:58:36;;;;;;;16.38;14.75;;;;;;;33.70;100.00;154531.47;5111957;28;20220;-64
2022/08/14 06:01:04;;;;;;;17.90;15.55;;;;;;;33.58;100.00;154499.31;5111562;28;20188;-65
2022/08/14 06:03:30;;;;;;;15.75;14.50;;;;;;;33.28;100.00;154423.56;5111603;28;20187;-65
2022/08/14 06:05:57;;;;;;;16.95;15.70;;;;;;;32.43;100.00;154207.81;5111996;28;20646;-65
2022/08/14 06:08:26;;;;;;;17.42;15.90;;;;;;;31.94;100.00;154084.63;5111872;28;20183;-64
2022/08/14 06:10:55;;;;;;;15.85;14.65;;;;;;;31.27;100.00;153915.22;5111827;28;20191;-65
2022/08/14 06:13:23;;;;;;;16.35;15.15;;;;;;;31.85;100.00;154061.53;5093454;28;20747;-64
2022/08/14 06:15:51;;;;;;;18.30;16.80;;;;;;;32.03;100.00;154107.72;5095152;28;20194;-65
2022/08/14 06:18:18;;;;;;;17.70;16.33;;;;;;;31.64;100.00;154008.94;5094807;28;20184;-65
2022/08/14 06:20:45;;;;;;;18.95;16.80;;;;;;;31.31;100.00;153922.97;5095175;28;20546;-65
2022/08/14 06:23:12;;;;;;;21.15;19.00;;;;;;;31.16;100.00;153887.03;5094987;28;20191;-64
2022/08/14 06:25:39;;;;;;;20.00;18.30;;;;;;;31.08;100.00;153866.53;5094767;28;20208;-64
2022/08/14 06:28:06;;;;;;;21.05;18.77;;;;;;;31.36;100.00;153937.03;5094873;28;20218;-65
2022/08/14 06:30:34;;;;;;;22.13;19.15;;;;;;;31.24;100.00;153907.56;5094881;28;20216;-64
2022/08/14 06:33:02;;;;;;;19.15;17.65;;;;;;;31.09;100.00;153869.09;5094736;28;20204;-65
2022/08/14 06:35:29;;;;;;;21.50;19.30;;;;;;;30.88;100.00;153815.19;5094794;28;20210;-65
2022/08/14 06:37:58;;;;;;;21.95;20.08;;;;;;;30.85;100.00;153808.75;5094782;28;20180;-64
2022/08/14 06:40:27;;;;;;;24.52;19.75;;;;;;;30.75;100.00;153783.16;5094682;28;20623;-65
2022/08/14 06:42:55;;;;;;;20.60;18.55;;;;;;;31.05;100.00;153857.56;5094327;28;20217;-65
2022/08/14 06:45:22;;;;;;;23.20;18.75;;;;;;;31.00;100.00;153846.03;5094205;28;20192;-65
2022/08/14 06:47:49;;;;;;;20.00;18.35;;;;;;;31.36;100.00;153937.03;5094340;28;20272;-65
2022/08/14 06:50:20;;;;;;;19.65;18.05;;;;;;;31.17;100.00;153889.63;5094149;28;20199;-65
2022/08/14 06:52:47;;;;;;;19.42;17.45;;;;;;;31.62;100.00;154002.50;5094162;28;20263;-65
2022/08/14 06:55:16;;;;;;;19.58;17.92;;;;;;;31.69;100.00;154020.50;5094178;28;20279;-64
2022/08/14 06:57:45;;;;;;;19.58;17.80;;;;;;;31.61;100.00;154001.25;5094435;28;20226;-64
2022/08/14 07:00:14;;;;;;;18.42;16.75;;;;;;;31.48;100.00;153967.84;5094384;28;20531;-66
2022/08/14 07:05:46;;;;;;;18.30;16.67;;;;;;;31.43;100.00;153953.72;5093999;28;20238;-65
2022/08/14 07:08:14;;;;;;;18.08;16.55;;;;;;;31.59;100.00;153996.09;5094206;28;20184;-63
2022/08/14 07:10:43;;;;;;;18.15;16.52;;;;;;;31.46;100.00;153961.41;5093999;28;20631;-64
2022/08/14 07:13:10;;;;;;;19.48;16.77;;;;;;;31.41;100.00;153949.88;5096824;28;20597;-64
2022/08/14 07:15:38;;;;;;;18.02;16.60;;;;;;;31.41;100.00;153949.88;5114402;28;20191;-64
2022/08/14 07:18:06;;;;;;;18.27;16.50;;;;;;;31.48;100.00;153967.84;5096269;28;20183;-64
2022/08/14 07:20:35;;;;;;;19.85;16.63;;;;;;;31.31;100.00;153922.97;5114260;28;20187;-64
2022/08/14 07:23:03;;;;;;;17.90;16.70;;;;;;;31.24;100.00;153906.25;5113867;28;20585;-65
2022/08/14 07:25:30;;;;;;;21.98;15.05;;;;;;;31.42;100.00;153951.16;5113983;28;20180;-65
2022/08/14 07:27:57;;;;;;;17.50;15.77;;;;;;;31.49;100.00;153969.09;5114242;28;20188;-65
2022/08/14 07:30:24;;;;;;;16.17;14.55;;;;;;;31.90;100.00;154073.09;5113779;28;20236;-65
2022/08/14 07:32:51;;;;;;;15.90;14.50;;;;;;;32.12;100.00;154130.84;5096158;28;20201;-65
2022/08/14 07:35:18;;;;;;;17.63;15.93;;;;;;;32.40;100.00;154200.16;5114030;28;20210;-64
2022/08/14 07:37:49;;;;;;;16.95;15.30;;;;;;;32.11;100.00;154128.31;5113979;28;20202;-65
2022/08/14 07:40:16;;;;;;;20.38;15.32;;;;;;;32.21;100.00;154152.66;5095534;28;20201;-65
2022/08/14 07:42:43;;;;;;;16.10;14.80;;;;;;;32.24;100.00;154159.09;5114249;28;20611;-65
2022/08/14 07:45:11;;;;;;;18.65;14.93;;;;;;;31.99;100.00;154097.47;5113459;28;20179;-65
2022/08/14 07:47:41;;;;;;;16.10;14.85;;;;;;;31.84;100.00;154058.94;5113956;28;20689;-66
2022/08/14 07:50:15;;;;;;;17.23;15.73;;;;;;;31.81;100.00;154049.97;5113685;28;20183;-66
2022/08/14 07:52:43;;;;;;;19.27;15.63;;;;;;;31.71;100.00;154026.88;5113450;28;20190;-65
2022/08/14 07:55:13;;;;;;;15.65;14.50;;;;;;;31.75;100.00;154035.84;5113490;28;20214;-64
2022/08/14 07:57:40;;;;;;;16.88;15.07;;;;;;;31.92;100.00;154079.47;5095494;28;20573;-65
2022/08/14 08:00:11;;;;;;;15.98;14.88;;;;;;;31.85;100.00;154061.53;5113246;28;20270;-65
2022/08/14 08:02:40;;;;;;;16.50;14.90;;;;;;;31.96;100.00;154088.44;5113488;28;20179;-65
2022/08/14 08:05:08;;;;;;;16.60;15.32;;;;;;;32.17;100.00;154143.69;5113279;28;20188;-65
2022/08/14 08:07:37;;;;;;;17.80;16.10;;;;;;;32.27;100.00;154166.78;5113427;28;20586;-65
2022/08/14 08:12:52;;;;;;;17.38;15.43;;;;;;;32.98;100.00;154349.06;5111847;28;20230;-64
2022/08/14 08:15:20;;;;;;;18.35;16.73;;;;;;;33.37;100.00;154446.69;5112763;28;20294;-64
2022/08/14 08:17:47;;;;;;;26.05;16.33;;;;;;;33.28;100.00;154423.56;5113124;28;20183;-64
2022/08/14 08:20:17;;;;;;;18.77;16.98;;;;;;;33.36;100.00;154445.41;5112932;28;20187;-65
2022/08/14 08:22:44;;;;;;;18.52;16.15;;;;;;;33.43;100.00;154463.41;5113107;28;20187;-65
2022/08/14 08:25:11;;;;;;;17.83;15.80;;;;;;;33.27;100.00;154421.03;5112797;28;20187;-64
2022/08/14 08:27:38;;;;;;;17.27;15.70;;;;;;;32.87;100.00;154320.84;5112674;28;20183;-64
2022/08/14 08:30:09;;;;;;;15.85;14.38;;;;;;;33.12;100.00;154382.44;5094716;28;20187;-65
2022/08/14 08:32:44;;;;;;;15.57;14.20;;;;;;;33.17;100.00;154396.63;5112628;28;20190;-65
2022/08/14 08:35:19;;;;;;;20.35;14.77;;;;;;;32.76;100.00;154292.56;5112344;28;20245;-64
2022/08/14 08:37:46;;;;;;;15.68;14.00;;;;;;;32.79;100.00;154299.03;5112434;28;20197;-64
2022/08/14 08:40:22;;;;;;;14.80;13.43;;;;;;;33.03;100.00;154360.63;5112424;28;20191;-65
2022/08/14 08:42:50;;;;;;;16.98;14.60;;;;;;;32.55;100.00;154239.91;5094893;28;20615;-66
2022/08/14 08:45:20;;;;;;;16.17;14.57;;;;;;;32.37;100.00;154192.47;5112832;28;20211;-65
2022/08/14 08:47:47;;;;;;;15.45;14.30;;;;;;;32.49;100.00;154224.53;5112490;28;20187;-65
2022/08/14 08:50:20;;;;;;;16.00;14.52;;;;;;;32.04;100.00;154110.25;5112373;28;20561;-65
2022/08/14 08:52:49;;;;;;;19.77;15.25;;;;;;;31.82;100.00;154052.56;5094391;28;20633;-64
2022/08/14 08:55:16;;;;;;;16.15;14.65;;;;;;;31.60;100.00;153997.41;5112072;28;20315;-65
2022/08/14 08:57:44;;;;;;;16.40;15.02;;;;;;;31.42;100.00;153951.16;5112606;28;20195;-65
2022/08/14 09:00:16;;;;;;;14.68;13.52;;;;;;;31.54;100.00;153983.28;5112655;28;20276;-65
2022/08/14 09:02:53;;;;;;;15.52;14.18;;;;;;;31.46;100.00;153961.41;5112431;28;20582;-65
2022/08/14 09:05:20;;;;;;;15.77;14.43;;;;;;;31.43;100.00;153953.72;5112311;28;20190;-65
2022/08/14 09:07:47;;;;;;;16.73;15.10;;;;;;;31.40;100.00;153947.34;5112317;28;20193;-65
2022/08/14 09:10:14;;;;;;;16.17;14.68;;;;;;;31.43;100.00;153953.72;5112286;28;20266;-65
2022/08/14 09:12:42;;;;;;;15.02;13.93;;;;;;;31.24;100.00;153906.25;5094018;28;20234;-65
2022/08/14 09:15:10;;;;;;;16.25;14.82;;;;;;;30.91;100.00;153821.59;5111820;28;20578;-65
2022/08/14 09:17:37;;;;;;;15.57;14.32;;;;;;;30.95;100.00;153831.84;5112338;28;20188;-65
2022/08/14 09:20:07;;;;;;;16.67;15.10;;;;;;;30.69;100.00;153766.47;5112003;28;20191;-65
2022/08/14 09:22:35;;;;;;;15.55;14.38;;;;;;;30.65;100.00;153756.22;5111918;28;20198;-64
2022/08/14 09:25:02;;;;;;;16.48;14.95;;;;;;;30.66;100.00;153758.78;5111900;28;20180;-65
2022/08/14 09:27:29;;;;;;;16.48;14.40;;;;;;;30.71;100.00;153771.59;5111937;28;20274;-65
2022/08/14 09:29:56;;;;;;;15.82;14.63;;;;;;;30.76;100.00;153785.72;5111846;28;20194;-65
2022/08/14 09:32:32;;;;;;;14.93;13.45;;;;;;;30.42;100.00;153697.22;5111856;28;20195;-65
2022/08/14 09:35:11;;;;;;;15.73;14.35;;;;;;;30.59;100.00;153740.84;5112012;28;20214;-65
2022/08/14 09:37:48;;;;;;;14.68;13.57;;;;;;;30.49;100.00;153716.47;5112152;28;20673;-65
2022/08/14 09:40:26;;;;;;;14.68;13.68;;;;;;;30.01;100.00;153594.66;5111871;28;20197;-66
2022/08/14 09:43:08;;;;;;;15.35;14.25;;;;;;;30.08;100.00;153611.34;5112089;28;20607;-65
2022/08/14 09:45:42;;;;;;;16.20;14.70;;;;;;;29.87;100.00;153560.06;5111986;28;20324;-66
2022/08/14 09:48:16;;;;;;;15.45;13.95;;;;;;;29.79;100.00;153538.28;5116034;28;20553;-65
2022/08/14 09:50:49;;;;;;;17.38;15.65;;;;;;;29.91;100.00;153569.06;5115702;28;20240;-64
2022/08/14 09:53:18;;;;;;;16.45;15.32;;;;;;;29.83;100.00;153549.75;5113658;28;20195;-65
2022/08/14 09:55:45;;;;;;;16.27;14.68;;;;;;;29.88;100.00;153561.34;5115723;28;20245;-65
2022/08/14 09:58:16;;;;;;;15.57;14.50;;;;;;;29.88;100.00;153561.34;5116132;28;20680;-65
2022/08/14 10:00:46;;;;;;;15.75;14.57;;;;;;;29.64;100.00;153499.81;5115953;28;20557;-65
2022/08/14 10:03:24;;;;;;;16.55;15.00;;;;;;;29.79;100.00;153539.50;5115329;28;20186;-64
2022/08/14 10:06:04;;;;;;;15.70;14.43;;;;;;;29.64;100.00;153501.09;5115480;28;20181;-65
2022/08/14 10:08:42;;;;;;;16.13;14.98;;;;;;;29.76;100.00;153530.56;5115942;28;20194;-65
2022/08/14 10:11:16;;;;;;;14.95;13.82;;;;;;;29.88;100.00;153561.34;5115490;28;20202;-65
2022/08/14 10:13:43;;;;;;;15.90;14.35;;;;;;;29.74;100.00;153525.44;5115647;28;20710;-64
2022/08/14 10:16:11;;;;;;;15.50;14.18;;;;;;;29.66;100.00;153504.94;5115194;28;20289;-65
2022/08/14 10:18:38;;;;;;;15.40;13.82;;;;;;;29.65;100.00;153503.66;5115532;28;20651;-65
2022/08/14 10:21:10;;;;;;;14.77;13.80;;;;;;;29.74;100.00;153525.44;5115432;28;20194;-66
2022/08/14 10:23:44;;;;;;;14.75;13.73;;;;;;;29.64;100.00;153499.81;5115162;28;20195;-65
2022/08/14 10:26:15;;;;;;;15.55;14.25;;;;;;;29.54;100.00;153475.44;5115143;28;20183;-65
2022/08/14 10:28:45;;;;;;;15.02;13.82;;;;;;;29.19;100.00;153387.06;5114997;28;20179;-64
2022/08/14 10:31:21;;;;;;;15.32;13.90;;;;;;;29.30;100.00;153415.25;5115291;28;20194;-65
2022/08/14 10:34:00;;;;;;;16.27;14.70;;;;;;;29.34;100.00;153425.50;5115296;28;20286;-65
2022/08/14 10:36:31;;;;;;;14.77;13.57;;;;;;;29.34;100.00;153425.50;5115250;28;20194;-64
2022/08/14 10:39:00;;;;;;;15.40;13.85;;;;;;;29.10;100.00;153364.00;5114767;28;20187;-65
2022/08/14 10:41:39;;;;;;;15.00;13.45;;;;;;;28.86;100.00;153303.78;5114732;28;20183;-64
2022/08/14 10:44:13;;;;;;;14.68;13.85;;;;;;;28.66;100.00;153252.50;5114746;28;20187;-65
2022/08/14 10:46:42;;;;;;;14.32;13.20;;;;;;;28.69;100.00;153260.19;5114723;28;20222;-64
2022/08/14 10:49:20;;;;;;;14.85;13.57;;;;;;;28.49;100.00;153210.25;5114943;28;20531;-65
2022/08/14 10:52:04;;;;;;;14.30;13.30;;;;;;;29.07;100.00;153355.03;5114772;28;20274;-65
2022/08/14 10:54:37;;;;;;;16.50;14.65;;;;;;;29.31;100.00;153416.56;5114503;28;20697;-65
2022/08/14 10:57:12;;;;;;;13.95;12.80;;;;;;;29.20;100.00;153389.59;5113926;28;20252;-64
2022/08/14 10:59:44;;;;;;;14.30;12.95;;;;;;;29.25;100.00;153402.41;5114735;28;20214;-65
2022/08/14 11:02:19;;;;;;;14.05;12.70;;;;;;;29.38;100.00;153434.47;5114362;28;20183;-65
2022/08/14 11:05:01;;;;;;;12.95;12.00;;;;;;;29.40;100.00;153439.63;5114669;28;20175;-64
2022/08/14 11:07:30;;;;;;;15.00;12.68;;;;;;;29.48;100.00;153460.09;5114610;28;20546;-65
2022/08/14 11:09:59;;;;;;;13.55;12.85;;;;;;;29.35;100.00;153428.09;5114184;28;20245;-65
2022/08/14 11:12:26;;;;;;;13.60;12.50;;;;;;;29.49;100.00;153462.69;5114398;28;20186;-64
2022/08/14 11:14:55;;;;;;;14.20;12.10;;;;;;;29.46;100.00;153454.97;5113960;28;20628;-65
2022/08/14 11:17:24;;;;;;;13.57;12.23;;;;;;;29.46;100.00;153454.97;5114445;28;20641;-64
2022/08/14 11:19:56;;;;;;;12.32;11.38;;;;;;;29.14;100.00;153372.94;5114078;28;20176;-65
2022/08/14 11:22:25;;;;;;;13.63;12.55;;;;;;;29.26;100.00;153403.69;5114086;28;20184;-64
2022/08/14 11:24:55;;;;;;;14.30;13.20;;;;;;;29.21;100.00;153392.16;5113942;28;20194;-64
2022/08/14 11:27:25;;;;;;;13.52;12.63;;;;;;;29.10;100.00;153362.72;5113738;28;20180;-64
2022/08/14 11:29:54;;;;;;;14.43;13.07;;;;;;;29.11;100.00;153366.50;5113872;28;20228;-65